Terminal Aerodrome Forecast
Issued by NWS Quad Cities IA IL

Home | Current Version | Previous Version | Text Only | Print | Product List | Glossary On
Versions: 1 2 3 4 5 6 7 8 9 10 11 12 13 14 15 16 17 18 19 20 21 22 23 24 25 26 27 28
000
FTUS43 KDVN 290200 AAB
TAFDBQ
TAF AMD
KDBQ 290254Z 2903/2924 14006KT P6SM BKN007 OVC040
      TEMPO 2903/2906 SCT007 BKN080
     FM290800 14005KT 5SM BR VCSH BKN050
     FM291500 17008KT P6SM VCTS FEW100CB BKN200 PROB30 2918/2924 2SM
      TSRA BKN030CB OVC050=

USA.gov is the U.S. government's official web portal to all federal, state and local government web resources and services.